Flight Track Log - Related Links

Times and Time Zones

All times are in EDT time to prevent confusion due to time zone crossing. See the DAL3903 flight status page for this flight to view local times or setup timezone preferences in your user account.


Time Position Orientation Groundspeed Altitude Reporting Facility
EDT Latitude Longitude Course Direction KTS MPH feet Rate Location/Type
Thu 08:58:57 AM 42.2017 -83.3583 90° East 165 190 1,300  Level Cleveland Center
Thu 08:59:46 AM 42.1558 -83.3561 178° South 237 273 2,500 2,037 Climbing Cleveland Center
Thu 09:00:46 AM 42.0869 -83.3558 180° South 268 308 5,000 2,636 Climbing Cleveland Center
Thu 09:01:33 AM 42.0253 -83.3197 156° South 283 326 7,200 2,722 Climbing Cleveland Center
Thu 09:02:00 AM 42.2167 -82.7628 90° East  Level FlightAware Approximate
Thu 09:02:34 AM 42.0422 -83.2142 78° East 273 314 9,900  Level Cleveland Center
Thu 09:03:00 AM 42.2167 -82.6150 90° East  Level FlightAware Approximate
Thu 09:03:33 AM 42.0656 -83.1117 73° East 314 361 11,300  Level Cleveland Center
Thu 09:04:00 AM 42.2167 -82.4673 90° East  Level FlightAware Approximate
Thu 09:04:33 AM 42.0972 -82.9869 71° East 329 379 13,000  Level Cleveland Center
Thu 09:05:33 AM 42.1292 -82.8567 72° East 356 410 14,200 1,339 Climbing Cleveland Center
Thu 09:06:34 AM 42.1589 -82.7203 74° East 375 432 15,700 1,400 Climbing Cleveland Center
Thu 09:07:33 AM 42.1881 -82.6008 72° East 375 432 17,000 1,361 Climbing Cleveland Center
Thu 09:08:33 AM 42.2175 -82.4700 73° East 375 432 18,400 1,500 Climbing Cleveland Center
Thu 09:09:33 AM 42.2136 -82.3269 92° East 375 432 20,000 1,400 Climbing Cleveland Center
Thu 09:10:33 AM 42.2053 -82.1836 94° East 375 432 21,200 1,091 Climbing Cleveland Center
Thu 09:11:34 AM 42.1944 -82.0406 96° East 383 441 22,200 1,050 Climbing Cleveland Center
Thu 09:12:33 AM 42.1528 -81.8883 110° East 387 445 23,300 1,059 Climbing Cleveland Center
Thu 09:13:33 AM 42.0619 -81.7886 141° Southeast 388 447 24,300 992 Climbing Cleveland Center
Thu 09:14:34 AM 41.9714 -81.6864 140° Southeast 409 471 25,300 992 Climbing Cleveland Center
Thu 09:15:34 AM 41.8825 -81.5844 139° Southeast 427 491 26,300 1,050 Climbing Cleveland Center
Thu 09:16:34 AM 41.8086 -81.4633 129° Southeast 424 488 27,400 1,050 Climbing Cleveland Center
Thu 09:17:34 AM 41.7469 -81.3289 122° Southeast 424 488 28,400 800 Climbing Cleveland Center
Thu 09:18:34 AM 41.6872 -81.1947 121° Southeast 424 488 29,000 303 Climbing Cleveland Center
Thu 09:19:33 AM 41.6294 -81.0692 122° Southeast 430 495 29,000  Level Cleveland Center
Thu 09:20:34 AM 41.5633 -80.9217 121° Southeast 445 512 29,000  Level Cleveland Center
Thu 09:21:33 AM 41.4992 -80.7772 121° Southeast 454 522 29,000  Level Cleveland Center
Thu 09:22:33 AM 41.4306 -80.6275 121° Southeast 459 528 29,000  Level Cleveland Center
Thu 09:23:34 AM 41.3617 -80.4753 121° Southeast 469 540 29,000  Level Cleveland Center
Thu 09:24:33 AM 41.2864 -80.3097 121° Southeast 476 548 29,000  Level Cleveland Center
Thu 09:25:33 AM 41.2172 -80.1581 121° Southeast 476 548 29,000  Level Cleveland Center
Thu 09:26:33 AM 41.1456 -80.0042 122° Southeast 476 548 29,000  Level Cleveland Center
Thu 09:27:33 AM 41.0739 -79.8561 123° Southeast 476 548 29,000  Level Cleveland Center
Thu 09:28:33 AM 41.0039 -79.7028 121° Southeast 481 554 29,000 -149 Level Cleveland Center
Thu 09:29:34 AM 40.9297 -79.5497 123° Southeast 481 554 28,700 -645 Descending Cleveland Center
Thu 09:30:34 AM 40.8575 -79.4000 122° Southeast 481 554 27,700 -1,008 Descending Cleveland Center
Thu 09:31:33 AM 40.7869 -79.2475 121° Southeast 481 554 26,700 -1,059 Descending Cleveland Center
Thu 09:32:33 AM 40.7142 -79.0983 123° Southeast 481 554 25,600 -1,050 Descending Cleveland Center
Thu 09:33:33 AM 40.6433 -78.9522 123° Southeast 481 554 24,600 -1,000 Descending Cleveland Center
Thu 09:34:33 AM 40.5725 -78.8036 122° Southeast 481 554 23,600 -1,000 Descending Cleveland Center
Thu 09:35:33 AM 40.5342 -78.6408 107° East 464 534 22,600 -1,000 Descending Cleveland Center
Thu 09:36:33 AM 40.5106 -78.4747 101° East 459 528 21,600 -894 Descending Cleveland Center
Thu 09:37:54 AM 40.4794 -78.2753 102° East 458 527 20,500 -887 Descending New York Center
Thu 09:38:55 AM 40.4558 -78.1228 101° East 453 521 19,500 -1,261 Descending New York Center
Thu 09:39:53 AM 40.4308 -77.9508 101° East 441 507 18,000 -1,831 Descending New York Center
Thu 09:40:53 AM 40.4014 -77.8169 106° East 413 475 15,900 -2,083 Descending New York Center
Thu 09:41:54 AM 40.3647 -77.6986 112° Southeast 373 429 13,800 -1,967 Descending New York Center
Thu 09:42:55 AM 40.3522 -77.5911 99° East 346 398 11,900 -1,831 Descending New York Center
Thu 09:43:52 AM 40.3233 -77.4739 108° East 315 362 10,200 -1,678 Descending New York Center
Thu 09:44:53 AM 40.2908 -77.3864 116° Southeast 301 346 8,600 -2,016 Descending New York Center
Thu 09:45:54 AM 40.2992 -77.2728 84° East 276 318 6,100 -2,083 Descending New York Center
Thu 09:46:54 AM 40.3083 -77.1839 82° East 281 323 4,400 -1,059 Descending New York Center
Thu 09:47:53 AM 40.3122 -77.0725 87° East 275 316 4,000 -250 Descending New York Center
Thu 09:48:54 AM 40.2828 -76.9992 118° Southeast 251 289 3,900 -545 Descending New York Center
Thu 09:49:54 AM 40.2553 -76.9258 116° Southeast 224 258 2,900 -1,000 Descending New York Center

Login

Don't have an account? Register now (free) for customized features, flight alerts, and more!